Time;durP1;ratioP1;P1;durP2;ratioP2;P2;SDS_P1;SDS_P2;PMS_P1;PMS_P2;Temp;Humidity;BMP_temperature;BMP_pressure;BME280_temperature;BME280_humidity;BME280_pressure;Samples;Min_cycle;Max_cycle;Signal;HPM_P1;HPM_P2
2023/10/01 00:00:15;;;;;;;6.95;2.45;;;16.90;74.70;;;;;;5076639;28;20028;-67
2023/10/01 00:02:41;;;;;;;9.52;2.58;;;16.90;73.90;;;;;;5073828;28;20082;-66
2023/10/01 00:05:08;;;;;;;7.53;2.40;;;16.90;74.00;;;;;;5073460;28;20081;-66
2023/10/01 00:07:37;;;;;;;4.80;2.40;;;16.90;73.80;;;;;;5072717;28;20465;-66
2023/10/01 00:10:11;;;;;;;8.82;2.72;;;16.90;74.30;;;;;;5072645;28;20025;-67
2023/10/01 00:13:06;;;;;;;7.35;2.78;;;16.80;74.60;;;;;;5072688;28;20358;-66
2023/10/01 00:15:32;;;;;;;5.20;2.40;;;16.70;74.60;;;;;;5055038;28;20043;-66
2023/10/01 00:17:58;;;;;;;8.05;2.47;;;16.80;75.50;;;;;;5072495;28;20034;-66
2023/10/01 00:20:25;;;;;;;10.02;2.50;;;16.80;74.40;;;;;;5071209;28;20024;-66
2023/10/01 00:22:57;;;;;;;8.60;2.70;;;16.70;74.50;;;;;;5076550;28;20123;-66
2023/10/01 00:25:23;;;;;;;9.02;2.75;;;16.70;74.40;;;;;;5076178;28;20086;-66
2023/10/01 00:27:50;;;;;;;9.90;2.33;;;16.70;74.50;;;;;;5076495;28;20025;-66
2023/10/01 00:30:17;;;;;;;8.98;3.05;;;16.70;74.60;;;;;;5075959;28;20041;-66
2023/10/01 00:32:42;;;;;;;8.90;3.03;;;16.70;74.60;;;;;;5076419;28;20067;-66
2023/10/01 00:35:12;;;;;;;10.00;2.58;;;16.70;74.80;;;;;;5074691;28;20064;-67
2023/10/01 00:37:41;;;;;;;11.88;3.15;;;16.70;74.70;;;;;;5076234;28;20036;-66
2023/10/01 00:40:10;;;;;;;8.68;2.60;;;16.70;74.70;;;;;;5076309;28;20032;-66
2023/10/01 00:42:37;;;;;;;8.13;3.00;;;16.70;74.80;;;;;;5076026;28;20036;-66
2023/10/01 00:45:08;;;;;;;5.75;2.28;;;16.70;74.80;;;;;;5076003;28;20408;-66
2023/10/01 00:47:39;;;;;;;7.47;2.70;;;16.70;74.70;;;;;;5076066;28;20400;-66
2023/10/01 00:50:16;;;;;;;11.50;2.70;;;16.70;74.60;;;;;;5076146;28;20043;-66
2023/10/01 00:52:42;;;;;;;9.82;2.80;;;16.70;74.30;;;;;;5076220;28;20486;-66
2023/10/01 00:55:09;;;;;;;11.85;2.90;;;16.60;74.70;;;;;;5075964;28;20028;-66
2023/10/01 00:57:37;;;;;;;10.15;2.88;;;16.60;75.00;;;;;;5075567;28;20171;-66
2023/10/01 01:00:13;;;;;;;9.00;2.67;;;16.60;74.80;;;;;;5075806;28;20059;-65
2023/10/01 01:02:46;;;;;;;11.00;3.08;;;16.70;74.90;;;;;;5074666;28;20423;-65
2023/10/01 01:05:23;;;;;;;7.60;2.67;;;16.70;74.80;;;;;;5075455;28;20044;-65
2023/10/01 01:07:50;;;;;;;7.82;2.72;;;16.70;74.70;;;;;;5075780;28;20113;-65
2023/10/01 01:10:18;;;;;;;6.95;2.58;;;16.70;75.00;;;;;;5075305;28;20326;-66
2023/10/01 01:12:51;;;;;;;9.80;3.15;;;16.70;74.90;;;;;;5075768;28;20035;-65
2023/10/01 01:15:17;;;;;;;7.53;2.20;;;16.70;75.20;;;;;;5075108;28;20031;-65
2023/10/01 01:17:43;;;;;;;8.82;2.63;;;16.70;75.00;;;;;;5075667;28;20024;-66
2023/10/01 01:20:09;;;;;;;9.43;2.85;;;16.60;75.20;;;;;;5075582;28;20457;-65
2023/10/01 01:22:37;;;;;;;9.90;2.83;;;16.60;75.10;;;;;;5075290;28;20452;-67
2023/10/01 01:25:10;;;;;;;6.28;2.85;;;16.60;75.10;;;;;;5075436;28;20068;-65
2023/10/01 01:27:36;;;;;;;8.85;2.50;;;16.60;75.30;;;;;;5075239;28;20465;-65
2023/10/01 01:30:07;;;;;;;8.73;2.63;;;16.60;75.50;;;;;;5074102;28;20032;-65
2023/10/01 01:32:36;;;;;;;8.98;2.70;;;16.60;75.20;;;;;;5073985;28;20028;-66
2023/10/01 01:35:05;;;;;;;8.93;3.15;;;16.50;75.10;;;;;;5077847;28;20024;-66
2023/10/01 01:37:46;;;;;;;8.38;2.40;;;16.50;75.30;;;;;;5074634;28;20492;-66
2023/10/01 01:40:25;;;;;;;11.02;2.90;;;16.40;75.30;;;;;;5075142;28;20024;-66
2023/10/01 01:42:56;;;;;;;7.07;3.13;;;16.40;75.40;;;;;;5075501;28;20377;-66
2023/10/01 01:45:27;;;;;;;;;;;16.40;75.40;;;;;;5075472;28;20071;-66
2023/10/01 01:47:53;;;;;;;7.85;2.75;;;16.40;75.50;;;;;;5075201;28;19915;-65
2023/10/01 01:50:21;;;;;;;8.82;2.90;;;16.40;75.60;;;;;;5089831;28;20452;-66
2023/10/01 01:52:49;;;;;;;7.75;2.92;;;16.40;75.60;;;;;;5095327;28;20039;-69
2023/10/01 01:55:26;;;;;;;9.05;3.53;;;16.40;75.90;;;;;;5094820;28;20020;-67
2023/10/01 01:58:15;;;;;;;7.47;3.28;;;16.40;76.00;;;;;;5094886;28;20055;-67
2023/10/01 02:01:01;;;;;;;7.72;3.20;;;16.30;77.60;;;;;;5095269;28;20032;-67
2023/10/01 02:03:32;;;;;;;8.60;3.22;;;16.30;78.80;;;;;;5094934;28;20034;-66
2023/10/01 02:05:58;;;;;;;7.43;2.95;;;16.30;79.90;;;;;;5095044;28;20024;-67
2023/10/01 02:08:24;;;;;;;12.40;2.92;;;16.30;80.10;;;;;;5093115;28;20486;-65
2023/10/01 02:10:52;;;;;;;8.48;3.58;;;16.30;80.70;;;;;;5092360;28;20107;-65
2023/10/01 02:13:18;;;;;;;8.32;3.03;;;16.30;80.90;;;;;;5094148;28;20035;-65
2023/10/01 02:15:45;;;;;;;8.88;3.17;;;16.20;81.40;;;;;;5094719;28;20028;-65
2023/10/01 02:18:13;;;;;;;6.53;2.90;;;16.20;81.80;;;;;;5094672;28;20039;-65
2023/10/01 02:20:40;;;;;;;10.45;3.05;;;16.10;82.50;;;;;;5094293;28;20177;-65
2023/10/01 02:23:12;;;;;;;6.13;2.58;;;16.10;82.60;;;;;;5094531;28;20028;-65
2023/10/01 02:25:46;;;;;;;9.50;3.20;;;16.10;82.80;;;;;;5094535;28;20105;-66
2023/10/01 02:28:15;;;;;;;6.80;3.08;;;16.10;83.40;;;;;;5094406;28;20468;-66
2023/10/01 02:30:42;;;;;;;7.28;2.90;;;16.00;83.40;;;;;;5094186;28;20468;-67
2023/10/01 02:33:19;;;;;;;10.00;3.58;;;16.00;83.40;;;;;;5094475;28;20395;-67
2023/10/01 02:35:48;;;;;;;10.30;2.92;;;16.00;83.70;;;;;;5094323;28;20392;-66
2023/10/01 02:41:02;;;;;;;7.25;3.15;;;15.90;84.90;;;;;;5094178;28;20035;-67
2023/10/01 02:43:36;;;;;;;7.97;2.83;;;15.80;85.50;;;;;;5093715;28;20229;-65
2023/10/01 02:46:04;;;;;;;13.30;3.15;;;15.80;86.10;;;;;;5094369;28;20031;-65
2023/10/01 02:48:30;;;;;;;7.60;2.90;;;15.80;85.90;;;;;;5093755;28;20099;-66
2023/10/01 02:50:56;;;;;;;5.47;3.03;;;15.80;85.80;;;;;;5094051;28;20028;-67
2023/10/01 02:53:23;;;;;;;7.43;3.20;;;15.80;85.90;;;;;;5093642;28;20036;-67
2023/10/01 02:55:51;;;;;;;9.25;2.92;;;15.80;85.30;;;;;;5093728;28;20035;-66
2023/10/01 02:58:18;;;;;;;8.93;3.30;;;15.80;85.30;;;;;;5094213;28;20044;-67
2023/10/01 03:00:44;;;;;;;9.10;2.95;;;15.80;85.10;;;;;;5092580;28;20032;-65
2023/10/01 03:03:15;;;;;;;9.32;2.92;;;15.80;84.90;;;;;;5093743;28;20434;-67
2023/10/01 03:05:44;;;;;;;6.45;3.28;;;15.80;84.40;;;;;;5093426;28;20040;-67
2023/10/01 03:08:40;;;;;;;6.75;3.28;;;15.90;84.10;;;;;;5093781;28;20028;-67
2023/10/01 03:11:02;;;;;;;10.05;3.42;;;15.80;83.40;;;;;;5093528;28;20024;-67
2023/10/01 03:13:30;;;;;;;6.15;2.95;;;15.90;83.60;;;;;;5092929;28;20499;-67
2023/10/01 03:18:44;;;;;;;7.88;2.65;;;15.90;83.30;;;;;;5092948;28;20483;-67
2023/10/01 03:22:12;;;;;;;5.88;2.92;;;15.90;83.80;;;;;;5093682;28;20375;-66
2023/10/01 03:24:03;;;;;;;7.20;2.85;;;15.90;83.50;;;;;;5090455;28;20040;-65
2023/10/01 03:26:33;;;;;;;7.95;2.83;;;15.90;82.90;;;;;;5090935;28;20050;-65
2023/10/01 03:29:14;;;;;;;10.07;3.13;;;15.90;82.80;;;;;;5093280;28;20028;-65
2023/10/01 03:31:43;;;;;;;7.03;2.67;;;15.90;82.80;;;;;;5092968;28;20032;-67
2023/10/01 03:34:10;;;;;;;10.10;2.95;;;15.90;82.80;;;;;;5093377;28;20028;-67
2023/10/01 03:36:42;;;;;;;10.65;3.40;;;15.90;83.00;;;;;;5092875;28;20039;-66
2023/10/01 03:39:26;;;;;;;8.75;3.15;;;15.90;83.00;;;;;;5093276;28;20039;-67
2023/10/01 03:41:53;;;;;;;7.38;3.10;;;15.90;82.70;;;;;;5093235;28;20024;-66
2023/10/01 03:44:40;;;;;;;9.02;3.10;;;15.90;82.70;;;;;;5091848;28;20404;-66
2023/10/01 03:47:08;;;;;;;8.95;2.90;;;15.90;82.70;;;;;;5093121;28;20051;-66
2023/10/01 03:49:37;;;;;;;10.32;3.17;;;15.90;82.50;;;;;;5092635;28;20028;-66
2023/10/01 03:52:03;;;;;;;8.75;2.80;;;16.00;82.60;;;;;;5092968;28;20361;-66
2023/10/01 03:57:17;;;;;;;9.23;2.97;;;16.00;82.80;;;;;;5092325;28;20105;-66
2023/10/01 03:59:52;;;;;;;7.70;3.13;;;16.00;82.90;;;;;;5076300;28;20467;-66
2023/10/01 04:02:33;;;;;;;7.38;3.25;;;16.00;83.10;;;;;;5072659;28;20119;-64
2023/10/01 04:04:58;;;;;;;9.25;3.38;;;16.00;83.30;;;;;;5075073;28;20074;-65
2023/10/01 04:07:42;;;;;;;7.20;2.95;;;16.00;83.40;;;;;;5072308;28;20028;-65
2023/10/01 04:10:31;;;;;;;7.68;2.97;;;16.00;83.60;;;;;;5072689;28;20028;-66
2023/10/01 04:13:11;;;;;;;8.73;3.10;;;16.00;83.70;;;;;;5072655;28;20050;-65
2023/10/01 04:15:41;;;;;;;8.35;3.10;;;16.00;83.60;;;;;;5072287;28;20021;-65
2023/10/01 04:23:32;;;;;;;9.02;2.97;;;16.00;84.50;;;;;;5072041;28;20321;-65
2023/10/01 04:26:07;;;;;;;6.57;2.58;;;16.00;84.50;;;;;;5072539;28;20033;-65
2023/10/01 04:28:36;;;;;;;7.13;3.10;;;15.80;85.00;;;;;;5072167;28;20028;-65
2023/10/01 04:31:09;;;;;;;8.68;3.72;;;15.80;85.10;;;;;;5072461;28;20108;-65
2023/10/01 04:33:36;;;;;;;11.18;2.85;;;15.80;85.20;;;;;;5072004;28;20078;-67
2023/10/01 04:36:04;;;;;;;9.13;3.13;;;15.90;85.10;;;;;;5072451;28;20021;-66
2023/10/01 04:38:32;;;;;;;10.93;2.95;;;15.90;85.10;;;;;;5071942;28;20082;-67
2023/10/01 04:40:58;;;;;;;8.93;2.88;;;15.90;85.20;;;;;;5072322;28;20067;-67
2023/10/01 04:43:34;;;;;;;10.07;3.17;;;15.90;85.30;;;;;;5072352;28;20107;-67
2023/10/01 04:46:01;;;;;;;6.68;2.88;;;15.90;85.70;;;;;;5072398;28;20033;-67
2023/10/01 04:48:28;;;;;;;7.47;2.72;;;16.00;85.50;;;;;;5071563;28;20032;-66
2023/10/01 04:50:54;;;;;;;6.93;2.35;;;15.90;85.30;;;;;;5072301;28;20103;-65
2023/10/01 04:53:25;;;;;;;9.63;2.95;;;16.00;85.20;;;;;;5072396;28;20135;-65
2023/10/01 04:56:01;;;;;;;6.90;3.60;;;16.00;85.30;;;;;;5072190;28;20464;-65
2023/10/01 04:58:32;;;;;;;8.07;2.58;;;16.00;85.40;;;;;;5071534;28;20048;-66
2023/10/01 05:00:58;;;;;;;8.02;2.25;;;16.00;85.00;;;;;;5072358;28;20021;-66
2023/10/01 05:03:40;;;;;;;12.23;3.13;;;16.10;84.90;;;;;;5070772;28;20032;-65
2023/10/01 05:06:13;;;;;;;9.75;3.17;;;16.10;84.90;;;;;;5072340;28;20028;-66
2023/10/01 05:08:40;;;;;;;7.47;3.22;;;16.10;83.90;;;;;;5074028;28;20024;-66
2023/10/01 05:11:12;;;;;;;9.35;2.88;;;16.10;83.70;;;;;;5075652;28;20111;-66
2023/10/01 05:13:42;;;;;;;9.35;3.20;;;16.20;83.70;;;;;;5075076;28;20504;-66
2023/10/01 05:16:12;;;;;;;9.17;3.23;;;16.20;83.60;;;;;;5075729;28;20111;-65
2023/10/01 05:18:45;;;;;;;9.18;2.92;;;16.20;83.40;;;;;;5075301;28;20314;-65
2023/10/01 05:21:15;;;;;;;15.75;3.53;;;16.30;83.40;;;;;;5075731;28;20029;-66
2023/10/01 05:23:43;;;;;;;6.65;2.90;;;16.30;83.30;;;;;;5075018;28;20035;-65
2023/10/01 05:26:11;;;;;;;9.93;3.30;;;16.30;83.50;;;;;;5075614;28;20107;-66
2023/10/01 05:28:41;;;;;;;8.10;2.83;;;16.30;83.40;;;;;;5076786;28;20466;-66
2023/10/01 05:31:24;;;;;;;8.77;3.17;;;16.30;83.20;;;;;;5075357;28;20029;-66
2023/10/01 05:33:52;;;;;;;6.95;2.80;;;16.40;82.90;;;;;;5074974;28;20036;-65
2023/10/01 05:36:19;;;;;;;7.47;3.08;;;16.40;82.40;;;;;;5075267;28;20051;-65
2023/10/01 05:38:45;;;;;;;7.72;2.88;;;16.40;82.40;;;;;;5074803;28;20025;-66
2023/10/01 05:41:15;;;;;;;6.57;2.90;;;16.40;82.20;;;;;;5075138;28;20112;-65
2023/10/01 05:43:50;;;;;;;9.77;3.08;;;16.40;82.10;;;;;;5074794;28;20029;-66
2023/10/01 05:46:17;;;;;;;9.10;3.47;;;16.40;81.90;;;;;;5075003;28;20036;-66
2023/10/01 05:48:49;;;;;;;8.52;3.40;;;16.50;81.80;;;;;;5074656;28;20029;-67
2023/10/01 05:51:15;;;;;;;7.07;3.03;;;16.50;81.80;;;;;;5075060;28;20032;-66
2023/10/01 05:53:42;;;;;;;9.73;2.85;;;16.50;81.60;;;;;;5074455;28;20028;-66
2023/10/01 05:56:10;;;;;;;9.27;2.92;;;16.60;81.70;;;;;;5074995;28;20033;-66
2023/10/01 05:58:36;;;;;;;7.43;2.90;;;16.60;82.10;;;;;;5074706;28;20439;-66
2023/10/01 06:01:27;;;;;;;7.10;3.35;;;16.70;82.40;;;;;;5083344;28;20039;-66
2023/10/01 06:03:48;;;;;;;9.73;3.63;;;16.80;81.60;;;;;;5094096;28;20039;-66
2023/10/01 06:06:23;;;;;;;10.38;3.13;;;16.80;81.50;;;;;;5094801;28;20476;-66
2023/10/01 06:08:50;;;;;;;7.55;2.55;;;16.80;81.10;;;;;;5094208;28;20028;-66
2023/10/01 06:11:38;;;;;;;7.05;3.13;;;16.90;81.30;;;;;;5091817;28;20380;-66
2023/10/01 06:14:07;;;;;;;13.48;3.60;;;17.00;80.90;;;;;;5094714;28;20476;-66
2023/10/01 06:16:37;;;;;;;11.25;3.58;;;17.00;80.00;;;;;;5093036;28;20032;-66
2023/10/01 06:19:04;;;;;;;7.45;3.58;;;17.00;79.90;;;;;;5094427;28;20023;-66
2023/10/01 06:21:31;;;;;;;5.93;3.03;;;17.00;79.40;;;;;;5094660;28;20024;-65
2023/10/01 06:23:58;;;;;;;7.53;3.38;;;17.00;79.50;;;;;;5094017;28;20544;-66
2023/10/01 06:26:36;;;;;;;9.05;2.90;;;17.10;79.00;;;;;;5092910;28;20051;-66
2023/10/01 06:29:02;;;;;;;8.40;3.22;;;17.10;78.80;;;;;;5094611;28;20020;-66
2023/10/01 06:31:48;;;;;;;6.18;2.95;;;17.10;78.70;;;;;;5094365;28;20474;-66
2023/10/01 06:34:19;;;;;;;9.82;3.08;;;17.10;79.00;;;;;;5094307;28;20476;-66
2023/10/01 06:36:45;;;;;;;6.65;2.92;;;17.20;79.30;;;;;;5093891;28;20035;-66
2023/10/01 06:39:20;;;;;;;10.75;2.90;;;17.20;79.30;;;;;;5094542;28;20028;-66
2023/10/01 06:41:49;;;;;;;11.00;3.10;;;17.20;78.80;;;;;;5093454;28;20028;-66
2023/10/01 06:44:15;;;;;;;7.63;3.05;;;17.20;78.90;;;;;;5093980;28;20118;-66
2023/10/01 06:46:41;;;;;;;10.00;3.42;;;17.20;78.70;;;;;;5093634;28;20024;-66
2023/10/01 06:49:08;;;;;;;10.40;3.15;;;17.20;78.80;;;;;;5093827;28;20036;-65
2023/10/01 06:51:43;;;;;;;6.97;2.92;;;17.20;78.70;;;;;;5093791;28;20028;-70
2023/10/01 06:54:10;;;;;;;9.32;3.92;;;17.20;79.50;;;;;;5093742;28;20480;-66
2023/10/01 06:56:38;;;;;;;6.60;2.67;;;17.20;79.90;;;;;;5093552;28;20353;-66
2023/10/01 07:01:46;;;;;;;7.50;3.10;;;17.30;80.00;;;;;;5093824;28;20034;-67
2023/10/01 07:04:17;;;;;;;9.93;3.08;;;17.30;79.70;;;;;;5093806;28;20085;-66
2023/10/01 07:06:44;;;;;;;9.85;3.20;;;17.40;79.20;;;;;;5093406;28;20070;-67
2023/10/01 07:09:24;;;;;;;9.68;3.50;;;17.50;78.50;;;;;;5093821;28;20043;-67
2023/10/01 07:11:57;;;;;;;8.85;3.38;;;17.50;78.40;;;;;;5093421;28;20032;-67
2023/10/01 07:14:30;;;;;;;9.45;3.22;;;17.50;78.60;;;;;;5093617;28;20044;-67
2023/10/01 07:17:01;;;;;;;8.65;3.30;;;17.40;78.60;;;;;;5093380;28;20261;-67
2023/10/01 07:19:28;;;;;;;12.35;3.60;;;17.40;79.00;;;;;;5092157;28;20024;-67
2023/10/01 07:21:56;;;;;;;7.90;3.22;;;17.50;79.10;;;;;;5092013;28;20428;-67
2023/10/01 07:24:30;;;;;;;10.90;3.30;;;17.50;79.00;;;;;;5090915;28;20138;-67
2023/10/01 07:27:06;;;;;;;10.40;3.25;;;17.50;79.40;;;;;;5072772;28;20033;-66
2023/10/01 07:29:33;;;;;;;7.82;2.95;;;17.50;79.50;;;;;;5072879;28;20420;-67
2023/10/01 07:32:12;;;;;;;11.38;3.20;;;17.50;79.40;;;;;;5071981;28;20457;-68
2023/10/01 07:34:45;;;;;;;9.60;3.33;;;17.60;79.80;;;;;;5072905;28;20024;-71
2023/10/01 07:37:11;;;;;;;11.50;3.15;;;17.70;79.50;;;;;;5073050;28;20050;-66
2023/10/01 07:39:37;;;;;;;14.48;3.55;;;17.80;79.40;;;;;;5072781;28;20096;-66
2023/10/01 07:42:10;;;;;;;7.35;3.42;;;17.90;79.20;;;;;;5072783;28;20036;-68
2023/10/01 07:44:36;;;;;;;10.25;3.42;;;18.00;78.70;;;;;;5072748;28;20045;-66
2023/10/01 07:47:03;;;;;;;11.45;3.92;;;18.10;78.50;;;;;;5072152;28;20028;-66
2023/10/01 07:49:47;;;;;;;12.82;3.83;;;18.30;77.90;;;;;;5072716;28;20024;-66
2023/10/01 07:52:19;;;;;;;8.80;3.22;;;18.40;77.60;;;;;;5073001;28;20177;-66
2023/10/01 07:54:47;;;;;;;8.32;3.00;;;18.60;77.70;;;;;;5072268;28;20033;-67
2023/10/01 07:57:17;;;;;;;5.88;2.70;;;19.30;75.80;;;;;;5072442;28;20045;-67
2023/10/01 07:59:46;;;;;;;8.45;3.47;;;20.60;74.30;;;;;;5070884;28;20036;-67
2023/10/01 08:07:22;;;;;;;6.90;3.15;;;22.50;64.50;;;;;;5092960;28;20028;-66
2023/10/01 08:09:51;;;;;;;6.60;3.03;;;22.60;63.10;;;;;;5092391;28;20028;-67
2023/10/01 08:12:56;;;;;;;10.25;3.08;;;22.60;63.00;;;;;;5092834;28;20024;-67
2023/10/01 08:15:29;;;;;;;8.40;3.67;;;22.50;63.10;;;;;;5092043;28;20028;-68
2023/10/01 08:20:58;;;;;;;7.68;3.13;;;22.50;63.50;;;;;;5072240;28;20075;-67
2023/10/01 08:23:33;;;;;;;7.07;2.92;;;22.40;63.40;;;;;;5071331;28;20085;-68
2023/10/01 08:28:56;;;;;;;5.82;2.83;;;22.50;63.70;;;;;;5071826;28;20074;-67
2023/10/01 08:32:23;;;;;;;7.90;3.08;;;22.40;63.60;;;;;;5072616;28;20033;-66
2023/10/01 08:34:24;;;;;;;7.25;3.47;;;22.30;63.90;;;;;;5062857;28;20044;-66
2023/10/01 08:36:57;;;;;;;7.97;3.10;;;22.20;63.80;;;;;;5072086;28;20028;-66
2023/10/01 08:39:47;;;;;;;13.77;3.40;;;22.30;64.40;;;;;;5072363;28;20036;-66
2023/10/01 08:42:16;;;;;;;6.43;3.50;;;22.30;64.40;;;;;;5073941;28;20089;-66
2023/10/01 08:44:48;;;;;;;8.32;3.35;;;22.30;64.60;;;;;;5076176;28;20029;-66
2023/10/01 08:47:34;;;;;;;6.95;2.90;;;22.10;64.10;;;;;;5074776;28;20031;-66
2023/10/01 08:50:26;;;;;;;8.75;3.33;;;22.00;63.90;;;;;;5075576;28;20035;-65
2023/10/01 08:53:12;;;;;;;7.88;3.28;;;21.90;65.00;;;;;;5075560;28;20123;-66
2023/10/01 08:58:15;;;;;;;9.70;3.38;;;21.90;65.60;;;;;;5075957;28;20044;-66
2023/10/01 09:00:49;;;;;;;6.85;3.63;;;22.00;65.90;;;;;;5074573;28;20024;-66
2023/10/01 09:03:30;;;;;;;8.23;3.72;;;22.30;66.80;;;;;;5075760;28;20033;-66
2023/10/01 09:06:06;;;;;;;;;;;22.50;66.90;;;;;;5075930;28;20032;-65
2023/10/01 09:08:42;;;;;;;9.10;3.63;;;22.60;65.00;;;;;;5075902;28;19962;-66
2023/10/01 09:11:12;;;;;;;11.68;4.30;;;22.70;64.50;;;;;;5075437;28;20377;-67
2023/10/01 09:14:14;;;;;;;10.25;4.43;;;22.70;65.00;;;;;;5074353;28;20038;-66
2023/10/01 09:16:45;;;;;;;6.80;3.97;;;22.80;65.10;;;;;;5078369;28;20032;-66
2023/10/01 09:19:30;;;;;;;11.30;4.90;;;23.00;63.90;;;;;;5075804;28;20108;-67
2023/10/01 09:22:07;;;;;;;9.45;3.70;;;23.00;63.10;;;;;;5075242;28;20036;-67
2023/10/01 09:24:39;;;;;;;11.23;4.80;;;23.00;63.50;;;;;;5075535;28;20032;-67
2023/10/01 09:27:09;;;;;;;9.98;4.75;;;23.00;63.90;;;;;;5074906;28;20046;-67
2023/10/01 09:29:48;;;;;;;7.82;4.18;;;23.10;63.00;;;;;;5075276;28;20025;-66
2023/10/01 09:32:15;;;;;;;9.18;4.00;;;23.20;63.40;;;;;;5075393;28;20130;-66
2023/10/01 09:34:46;;;;;;;8.82;4.78;;;23.20;63.40;;;;;;5075269;28;20158;-66
2023/10/01 09:37:35;;;;;;;10.45;4.13;;;23.30;63.10;;;;;;5075226;28;20028;-66
2023/10/01 09:42:57;;;;;;;9.90;4.20;;;23.20;63.40;;;;;;5074665;28;20039;-67
2023/10/01 09:45:39;;;;;;;6.55;4.72;;;22.90;64.40;;;;;;5074750;28;20174;-65
2023/10/01 09:48:09;;;;;;;8.45;4.43;;;22.80;65.50;;;;;;5074987;28;20037;-65
2023/10/01 09:50:41;;;;;;;7.88;4.30;;;22.60;65.10;;;;;;5074924;28;20025;-66
2023/10/01 09:53:12;;;;;;;7.65;4.30;;;22.20;65.80;;;;;;5073785;28;20044;-65
2023/10/01 09:55:48;;;;;;;8.70;4.45;;;22.20;66.70;;;;;;5073806;28;20389;-66
2023/10/01 09:58:29;;;;;;;7.10;3.72;;;22.10;65.80;;;;;;5074929;28;20043;-66
2023/10/01 10:01:01;;;;;;;8.50;4.15;;;21.70;67.30;;;;;;5074435;28;20385;-67
2023/10/01 10:03:36;;;;;;;9.57;4.60;;;21.60;67.30;;;;;;5078919;28;20067;-66
2023/10/01 10:06:24;;;;;;;7.72;4.15;;;21.50;68.60;;;;;;5074497;28;20033;-67
2023/10/01 10:08:52;;;;;;;8.80;4.28;;;21.60;71.30;;;;;;5080724;28;20027;-68
2023/10/01 10:11:26;;;;;;;8.70;4.55;;;21.70;69.60;;;;;;5082635;28;20028;-66
2023/10/01 10:13:57;;;;;;;8.90;4.55;;;21.80;68.70;;;;;;5074426;28;20087;-68
2023/10/01 10:16:32;;;;;;;7.85;3.88;;;21.90;68.10;;;;;;5081411;28;20027;-67
2023/10/01 10:19:16;;;;;;;7.32;3.67;;;21.70;64.90;;;;;;5084763;28;20020;-67
2023/10/01 10:24:46;;;;;;;7.43;3.70;;;21.40;65.80;;;;;;5084974;28;20032;-67
2023/10/01 10:27:24;;;;;;;8.00;3.78;;;21.30;66.50;;;;;;5078064;28;20165;-66
2023/10/01 10:29:56;;;;;;;9.98;4.63;;;21.20;66.20;;;;;;5074421;28;20368;-66
2023/10/01 10:32:44;;;;;;;7.55;3.85;;;21.20;66.70;;;;;;5077539;28;20028;-67
2023/10/01 10:35:14;;;;;;;10.50;4.65;;;21.20;66.50;;;;;;5077259;28;20043;-66
2023/10/01 10:37:48;;;;;;;9.85;4.80;;;21.10;65.60;;;;;;5086529;28;20073;-66
2023/10/01 10:42:58;;;;;;;10.20;4.75;;;21.10;69.10;;;;;;5091391;28;20032;-66
2023/10/01 10:45:43;;;;;;;11.98;4.43;;;21.40;68.40;;;;;;5077061;28;20044;-66
2023/10/01 10:48:10;;;;;;;8.25;4.82;;;21.50;66.00;;;;;;5074461;28;20035;-64
2023/10/01 10:50:46;;;;;;;9.02;4.38;;;21.70;65.50;;;;;;5094211;28;20069;-64
2023/10/01 10:53:17;;;;;;;8.82;4.25;;;21.80;65.60;;;;;;5093190;28;20480;-65
2023/10/01 10:56:05;;;;;;;9.38;4.05;;;21.90;65.40;;;;;;5093883;28;20038;-65
2023/10/01 10:58:37;;;;;;;10.20;4.57;;;22.10;63.20;;;;;;5094193;28;20529;-64
2023/10/01 11:01:15;;;;;;;7.70;3.70;;;22.30;63.00;;;;;;5093568;28;20032;-65
2023/10/01 11:03:43;;;;;;;11.40;4.38;;;22.40;62.40;;;;;;5092650;28;20443;-65
2023/10/01 11:06:44;;;;;;;7.68;3.88;;;22.50;62.40;;;;;;5092174;28;20112;-66
2023/10/01 11:09:22;;;;;;;;;;;22.40;61.20;;;;;;5093703;28;20029;-66
2023/10/01 11:11:49;;;;;;;12.68;4.55;;;22.50;61.00;;;;;;5093581;28;19970;-66
2023/10/01 11:14:17;;;;;;;9.15;4.65;;;22.50;61.60;;;;;;5093317;28;20719;-65
2023/10/01 11:16:44;;;;;;;8.48;4.78;;;22.50;60.30;;;;;;5093692;28;20043;-66
2023/10/01 11:19:14;;;;;;;7.22;4.40;;;22.60;60.30;;;;;;5093189;28;20461;-66
2023/10/01 11:21:55;;;;;;;9.10;4.17;;;22.70;60.40;;;;;;5093726;28;20020;-66
2023/10/01 11:24:24;;;;;;;8.77;4.15;;;22.80;59.60;;;;;;5091526;28;20283;-66
2023/10/01 11:27:22;;;;;;;8.82;4.35;;;22.90;59.70;;;;;;5074479;28;20032;-66
2023/10/01 11:30:12;;;;;;;10.07;4.22;;;23.10;59.90;;;;;;5073379;28;20369;-66
2023/10/01 11:35:59;;;;;;;9.73;4.25;;;23.00;57.20;;;;;;5073098;28;20039;-65
2023/10/01 11:38:26;;;;;;;9.88;4.75;;;22.90;56.90;;;;;;5072789;28;20032;-65
2023/10/01 11:41:07;;;;;;;8.60;4.45;;;22.90;57.20;;;;;;5072573;28;20137;-65
2023/10/01 11:43:59;;;;;;;10.10;5.07;;;22.90;55.40;;;;;;5072847;28;20037;-65
2023/10/01 11:46:25;;;;;;;9.70;4.85;;;22.90;56.70;;;;;;5072757;28;20028;-64
2023/10/01 11:48:56;;;;;;;12.75;4.82;;;23.00;56.30;;;;;;5072914;28;20032;-65
2023/10/01 11:51:32;;;;;;;12.65;4.93;;;23.00;57.20;;;;;;5072883;28;20048;-65
2023/10/01 11:54:25;;;;;;;9.02;4.70;;;23.10;56.70;;;;;;5072436;28;20071;-68
2023/10/01 11:57:06;;;;;;;9.10;4.45;;;22.90;56.70;;;;;;5072140;28;20094;-66
2023/10/01 11:59:36;;;;;;;10.80;4.93;;;22.90;57.20;;;;;;5072516;28;20404;-65
2023/10/01 12:02:20;;;;;;;9.67;4.47;;;22.80;57.20;;;;;;5072090;28;20422;-66
2023/10/01 12:05:00;;;;;;;11.80;4.80;;;22.70;57.10;;;;;;5072717;28;20465;-65
2023/10/01 12:07:32;;;;;;;7.75;3.90;;;22.60;57.50;;;;;;5072373;28;20035;-66
2023/10/01 12:09:59;;;;;;;15.60;4.40;;;22.60;57.80;;;;;;5072582;28;20029;-65
2023/10/01 12:12:27;;;;;;;9.70;4.88;;;22.50;58.80;;;;;;5072654;28;20134;-65
2023/10/01 12:15:33;;;;;;;10.50;4.45;;;22.60;58.60;;;;;;5072474;28;20036;-66
2023/10/01 12:17:46;;;;;;;8.90;5.03;;;22.70;57.90;;;;;;5074640;28;20052;-66
2023/10/01 12:20:29;;;;;;;8.13;4.70;;;22.60;57.50;;;;;;5072371;28;20024;-65
2023/10/01 12:23:10;;;;;;;8.88;4.25;;;22.50;58.00;;;;;;5072493;28;20123;-65
2023/10/01 12:28:28;;;;;;;8.60;4.75;;;22.50;59.20;;;;;;5072141;28;20461;-66
2023/10/01 12:30:58;;;;;;;8.65;4.47;;;22.50;58.40;;;;;;5072430;28;20089;-65
2023/10/01 12:33:24;;;;;;;11.70;4.80;;;22.50;58.40;;;;;;5076365;28;20051;-66
2023/10/01 12:35:50;;;;;;;10.95;4.72;;;22.50;58.40;;;;;;5084226;28;20077;-66
2023/10/01 12:40:49;;;;;;;10.80;4.80;;;22.60;59.00;;;;;;5078189;28;20028;-72
2023/10/01 12:43:36;;;;;;;11.27;4.22;;;22.60;58.10;;;;;;5075060;28;20040;-70
2023/10/01 12:46:13;;;;;;;10.02;4.90;;;22.60;57.20;;;;;;5071901;28;20032;-71
2023/10/01 12:48:57;;;;;;;9.02;4.70;;;22.50;56.90;;;;;;5072353;28;20050;-70
2023/10/01 12:51:32;;;;;;;9.07;4.50;;;22.60;57.30;;;;;;5071832;28;20074;-67
2023/10/01 12:53:59;;;;;;;10.57;4.25;;;22.70;57.00;;;;;;5071212;28;20107;-67
2023/10/01 12:56:44;;;;;;;9.32;5.07;;;22.80;56.90;;;;;;5071714;28;20047;-67
2023/10/01 12:59:18;;;;;;;10.77;5.47;;;22.70;56.40;;;;;;5071484;28;20515;-67
2023/10/01 13:01:51;;;;;;;9.00;5.30;;;22.70;56.70;;;;;;5072360;28;20532;-68
2023/10/01 13:04:32;;;;;;;9.57;5.07;;;22.70;56.30;;;;;;5071642;28;20025;-68
2023/10/01 13:07:03;;;;;;;11.10;6.03;;;22.70;56.50;;;;;;5072088;28;20038;-67
2023/10/01 13:10:05;;;;;;;14.45;7.13;;;22.80;56.10;;;;;;5072251;28;20039;-66
2023/10/01 13:12:25;;;;;;;10.90;5.18;;;22.80;56.60;;;;;;5069768;28;20051;-66
2023/10/01 13:17:43;;;;;;;13.30;6.47;;;22.80;56.00;;;;;;5071802;28;20031;-66
2023/10/01 13:20:22;;;;;;;10.27;5.15;;;22.80;56.80;;;;;;5071630;28;20028;-67
2023/10/01 13:23:28;;;;;;;9.13;5.13;;;22.80;56.70;;;;;;5070546;28;20115;-64
2023/10/01 13:25:47;;;;;;;11.57;5.28;;;22.80;57.10;;;;;;5068649;28;20036;-66
2023/10/01 13:28:20;;;;;;;8.70;5.10;;;22.70;57.10;;;;;;5071870;28;20432;-66
2023/10/01 13:33:56;;;;;;;11.18;5.25;;;22.70;57.10;;;;;;5066612;28;20127;-67
2023/10/01 13:36:35;;;;;;;8.65;4.97;;;22.70;56.70;;;;;;5074981;28;20107;-66
2023/10/01 14:09:46;;;;;;;11.10;4.93;;;22.50;57.50;;;;;;5073960;28;20104;-66
2023/10/01 14:12:04;;;;;;;10.05;4.93;;;22.50;56.90;;;;;;5086913;28;20369;-66
2023/10/01 14:14:33;;;;;;;13.93;6.15;;;22.50;56.60;;;;;;5083852;28;20024;-66
2023/10/01 14:17:13;;;;;;;10.23;5.57;;;22.60;57.40;;;;;;5083027;28;20115;-66
2023/10/01 14:19:41;;;;;;;13.60;5.90;;;22.50;56.90;;;;;;5084880;28;20076;-65
2023/10/01 14:22:20;;;;;;;11.43;5.40;;;22.50;56.30;;;;;;5082538;28;20111;-65
2023/10/01 14:24:47;;;;;;;12.63;6.22;;;22.50;56.10;;;;;;5082941;28;20097;-66
2023/10/01 14:27:24;;;;;;;12.85;6.10;;;22.50;56.00;;;;;;5084429;28;20139;-68
2023/10/01 14:30:00;;;;;;;12.70;5.57;;;22.50;55.90;;;;;;5084567;28;20021;-67
2023/10/01 14:32:36;;;;;;;10.63;6.00;;;22.50;55.80;;;;;;5082967;28;20019;-66
2023/10/01 14:35:14;;;;;;;13.57;6.43;;;22.50;56.10;;;;;;5081040;28;20023;-65
2023/10/01 14:37:56;;;;;;;10.65;5.20;;;22.50;55.80;;;;;;5081982;28;20024;-65